Time;durP1;ratioP1;P1;durP2;ratioP2;P2;SDS_P1;SDS_P2;PMS_P1;PMS_P2;Temp;Humidity;BMP_temperature;BMP_pressure;BME280_temperature;BME280_humidity;BME280_pressure;Samples;Min_cycle;Max_cycle;Signal;HPM_P1;HPM_P2
2021/01/22 00:01:09;;;;;;;0.70;0.70;;;7.60;99.90;;;;;;5072990;28;20476;-38
2021/01/22 00:03:36;;;;;;;0.70;0.70;;;7.60;99.90;;;;;;5072623;28;20965;-39
2021/01/22 00:06:02;;;;;;;0.70;0.70;;;7.60;99.90;;;;;;5072641;28;20813;-39
2021/01/22 00:08:28;;;;;;;1.27;0.80;;;7.50;99.90;;;;;;5072677;28;20441;-39
2021/01/22 00:10:55;;;;;;;0.87;0.60;;;7.50;99.90;;;;;;5072606;28;20938;-39
2021/01/22 00:13:21;;;;;;;0.70;0.70;;;7.40;99.90;;;;;;5072895;28;20449;-39
2021/01/22 00:15:47;;;;;;;0.70;0.70;;;7.40;99.90;;;;;;5072482;28;20468;-39
2021/01/22 00:18:14;;;;;;;0.90;0.70;;;7.40;99.90;;;;;;5072609;28;20531;-39
2021/01/22 00:20:41;;;;;;;0.90;0.90;;;7.40;99.90;;;;;;5072426;28;20874;-38
2021/01/22 00:23:07;;;;;;;0.63;0.63;;;7.30;99.90;;;;;;5072768;28;20445;-38
2021/01/22 00:25:33;;;;;;;0.60;0.60;;;7.40;99.90;;;;;;5072710;28;20514;-39
2021/01/22 00:27:59;;;;;;;0.60;0.60;;;7.30;99.90;;;;;;5072730;28;20448;-39
2021/01/22 00:30:26;;;;;;;0.97;0.87;;;7.30;99.90;;;;;;5072660;28;20531;-38
2021/01/22 00:32:52;;;;;;;0.87;0.60;;;7.30;99.90;;;;;;5075925;28;20566;-38
2021/01/22 00:35:19;;;;;;;1.10;0.70;;;7.30;99.90;;;;;;5076311;28;20467;-38
2021/01/22 00:37:46;;;;;;;0.77;0.50;;;7.30;99.90;;;;;;5076371;28;20471;-38
2021/01/22 00:40:13;;;;;;;0.77;0.60;;;7.20;99.90;;;;;;5076005;28;20935;-38
2021/01/22 00:42:39;;;;;;;0.90;0.70;;;7.20;99.90;;;;;;5076142;28;20555;-38
2021/01/22 00:45:07;;;;;;;0.70;0.70;;;7.30;99.90;;;;;;5076171;28;20475;-38
2021/01/22 00:47:33;;;;;;;1.47;0.60;;;7.30;99.90;;;;;;5076215;28;20455;-38
2021/01/22 00:49:59;;;;;;;0.70;0.70;;;7.40;99.90;;;;;;5076127;28;20444;-38
2021/01/22 00:52:27;;;;;;;0.53;0.53;;;7.40;99.90;;;;;;5076045;28;20451;-39
2021/01/22 00:54:53;;;;;;;1.53;0.77;;;7.30;99.90;;;;;;5075955;28;20460;-38
2021/01/22 00:57:19;;;;;;;1.43;0.60;;;7.30;99.90;;;;;;5075981;28;20449;-38
2021/01/22 00:59:47;;;;;;;2.53;0.93;;;7.20;99.90;;;;;;5075950;28;20452;-38
2021/01/22 01:02:13;;;;;;;1.10;0.60;;;7.30;99.90;;;;;;5075804;28;20484;-38
2021/01/22 01:04:39;;;;;;;1.03;0.70;;;7.20;99.90;;;;;;5075873;28;20469;-39
2021/01/22 01:07:06;;;;;;;0.83;0.77;;;7.20;99.90;;;;;;5075817;28;20444;-38
2021/01/22 01:09:33;;;;;;;0.77;0.77;;;7.20;99.90;;;;;;5075462;28;20474;-38
2021/01/22 01:11:59;;;;;;;0.80;0.70;;;7.20;99.90;;;;;;5075748;28;20444;-38
2021/01/22 01:14:25;;;;;;;2.03;0.70;;;7.20;99.90;;;;;;5075606;28;20476;-38
2021/01/22 01:16:51;;;;;;;0.80;0.70;;;7.20;99.90;;;;;;5075680;28;20444;-38
2021/01/22 01:19:18;;;;;;;0.80;0.80;;;7.10;99.90;;;;;;5075182;28;20481;-38
2021/01/22 01:21:44;;;;;;;1.70;0.60;;;7.10;99.90;;;;;;5075124;28;21017;-38
2021/01/22 01:24:11;;;;;;;0.83;0.83;;;7.10;99.90;;;;;;5075146;28;21043;-38
2021/01/22 01:26:38;;;;;;;0.73;0.67;;;7.10;99.90;;;;;;5075284;28;20965;-38
2021/01/22 01:29:04;;;;;;;0.57;0.50;;;7.10;99.90;;;;;;5075098;28;20835;-38
2021/01/22 01:31:30;;;;;;;1.03;0.70;;;7.10;99.90;;;;;;5075402;28;20445;-38
2021/01/22 01:33:57;;;;;;;0.50;0.50;;;7.10;99.90;;;;;;5075275;28;20465;-39
2021/01/22 01:36:23;;;;;;;1.47;0.50;;;7.20;99.90;;;;;;5075413;28;20449;-38
2021/01/22 01:38:50;;;;;;;0.60;0.60;;;7.20;99.90;;;;;;5075318;28;20440;-38
2021/01/22 01:41:16;;;;;;;0.50;0.50;;;7.30;99.90;;;;;;5075812;28;20978;-39
2021/01/22 01:43:43;;;;;;;0.90;0.60;;;7.30;99.90;;;;;;5077200;28;20460;-39
2021/01/22 01:46:10;;;;;;;0.50;0.40;;;7.40;99.90;;;;;;5075145;28;20467;-38
2021/01/22 01:48:36;;;;;;;3.70;0.57;;;7.30;99.90;;;;;;5075078;28;20820;-38
2021/01/22 01:51:02;;;;;;;0.70;0.67;;;7.30;99.90;;;;;;5074716;28;20840;-38
2021/01/22 01:53:29;;;;;;;0.70;0.50;;;7.30;99.90;;;;;;5074996;28;20449;-39
2021/01/22 01:55:55;;;;;;;0.70;0.60;;;7.30;99.90;;;;;;5074890;28;20905;-38
2021/01/22 01:58:24;;;;;;;0.60;0.60;;;7.30;99.90;;;;;;5074601;28;20943;-39
2021/01/22 02:00:52;;;;;;;0.60;0.60;;;7.30;99.90;;;;;;5074810;28;20502;-38
2021/01/22 02:03:19;;;;;;;0.60;0.60;;;7.30;99.90;;;;;;5074955;28;20449;-38
2021/01/22 02:05:46;;;;;;;0.70;0.60;;;7.30;99.90;;;;;;5077861;28;20476;-39
2021/01/22 02:08:13;;;;;;;0.60;0.60;;;7.30;99.90;;;;;;5077705;28;20448;-39
2021/01/22 02:10:40;;;;;;;0.70;0.70;;;7.30;99.90;;;;;;5077582;28;20453;-39
2021/01/22 02:13:06;;;;;;;1.83;0.60;;;7.30;99.90;;;;;;5075646;28;20445;-39
2021/01/22 02:15:33;;;;;;;0.50;0.50;;;7.30;99.90;;;;;;5075395;28;20460;-38
2021/01/22 02:18:02;;;;;;;0.60;0.60;;;7.30;99.90;;;;;;5074682;28;20445;-38
2021/01/22 02:20:40;;;;;;;0.60;0.60;;;7.20;99.90;;;;;;5074607;28;20432;-38
2021/01/22 02:23:07;;;;;;;0.50;0.50;;;7.30;99.90;;;;;;5074571;28;20421;-38
2021/01/22 02:25:38;;;;;;;0.77;0.73;;;7.30;99.90;;;;;;5074348;28;20529;-38
2021/01/22 02:28:07;;;;;;;0.57;0.57;;;7.30;99.90;;;;;;5073998;28;20801;-39
2021/01/22 02:30:34;;;;;;;1.93;0.70;;;7.30;99.90;;;;;;5074266;28;20441;-38
2021/01/22 02:33:03;;;;;;;0.50;0.50;;;7.20;99.90;;;;;;5074207;28;20437;-38
2021/01/22 02:35:30;;;;;;;0.70;0.70;;;7.20;99.90;;;;;;5074074;28;20465;-39
2021/01/22 02:37:59;;;;;;;1.07;0.60;;;7.20;99.90;;;;;;5073863;28;20950;-39
2021/01/22 02:40:25;;;;;;;1.90;0.90;;;7.20;99.90;;;;;;5073737;28;20437;-38
2021/01/22 02:42:53;;;;;;;4.67;1.50;;;7.30;99.90;;;;;;5073896;28;20479;-38
2021/01/22 02:45:21;;;;;;;0.60;0.57;;;7.20;99.90;;;;;;5073972;28;20589;-38
2021/01/22 02:47:50;;;;;;;0.77;0.60;;;7.20;99.90;;;;;;5073625;28;20816;-38
2021/01/22 02:50:18;;;;;;;0.60;0.60;;;7.20;99.90;;;;;;5073915;28;20441;-39
2021/01/22 02:52:44;;;;;;;0.53;0.53;;;7.20;99.90;;;;;;5073818;28;20445;-39
2021/01/22 02:55:13;;;;;;;1.10;0.70;;;7.20;99.90;;;;;;5072893;28;20477;-38
2021/01/22 02:57:48;;;;;;;0.67;0.67;;;7.10;99.90;;;;;;5073808;28;20448;-39
2021/01/22 03:00:19;;;;;;;0.60;0.60;;;7.10;99.90;;;;;;5073518;28;20926;-38
2021/01/22 03:02:51;;;;;;;0.70;0.60;;;7.00;99.90;;;;;;5073671;28;20469;-39
2021/01/22 03:05:22;;;;;;;1.73;0.60;;;7.00;99.90;;;;;;5073558;28;20472;-39
2021/01/22 03:07:53;;;;;;;1.93;0.70;;;7.00;99.90;;;;;;5073700;28;20433;-38
2021/01/22 03:10:21;;;;;;;1.83;0.70;;;7.00;99.90;;;;;;5073573;28;20429;-38
2021/01/22 03:12:49;;;;;;;0.70;0.70;;;6.90;99.90;;;;;;5073232;28;20437;-39
2021/01/22 03:15:16;;;;;;;0.80;0.60;;;6.90;99.90;;;;;;5073210;28;20971;-38
2021/01/22 03:17:43;;;;;;;1.33;0.60;;;6.90;99.90;;;;;;5075083;28;20436;-38
2021/01/22 03:20:12;;;;;;;2.93;0.60;;;6.90;99.90;;;;;;5073866;28;20485;-38
2021/01/22 03:22:38;;;;;;;1.50;0.60;;;6.90;99.90;;;;;;5073629;28;20530;-39
2021/01/22 03:25:06;;;;;;;1.03;0.70;;;6.90;99.90;;;;;;5073614;28;20468;-39
2021/01/22 03:27:32;;;;;;;1.00;0.90;;;6.80;99.90;;;;;;5073737;28;20447;-39
2021/01/22 03:29:59;;;;;;;1.67;0.60;;;6.80;99.90;;;;;;5073344;28;20951;-39
2021/01/22 03:32:25;;;;;;;0.70;0.60;;;6.80;99.90;;;;;;5073140;28;20475;-39
2021/01/22 03:34:51;;;;;;;1.67;0.77;;;6.90;99.90;;;;;;5073947;28;20484;-39
2021/01/22 03:37:18;;;;;;;1.27;0.70;;;6.90;99.90;;;;;;5073794;28;20445;-38
2021/01/22 03:39:44;;;;;;;4.70;0.63;;;6.90;99.90;;;;;;5073974;28;20441;-39
2021/01/22 03:42:11;;;;;;;0.70;0.70;;;6.90;99.90;;;;;;5073616;28;20472;-39
2021/01/22 03:44:37;;;;;;;3.70;0.70;;;6.90;99.90;;;;;;5073239;28;20471;-38
2021/01/22 03:47:06;;;;;;;1.67;0.87;;;7.00;99.90;;;;;;5073246;28;20441;-38
2021/01/22 03:49:32;;;;;;;0.70;0.57;;;6.90;99.90;;;;;;5073350;28;20539;-38
2021/01/22 03:51:59;;;;;;;0.80;0.80;;;7.00;99.90;;;;;;5073445;28;20452;-38
2021/01/22 03:54:26;;;;;;;1.47;0.70;;;7.00;99.90;;;;;;5073413;28;20574;-38
2021/01/22 03:56:52;;;;;;;0.97;0.70;;;7.00;99.90;;;;;;5073270;28;20444;-38
2021/01/22 03:59:18;;;;;;;1.33;0.70;;;6.90;99.90;;;;;;5073277;28;20448;-38
2021/01/22 04:01:45;;;;;;;1.37;0.60;;;6.90;99.90;;;;;;5073165;28;20483;-38
2021/01/22 04:04:11;;;;;;;0.77;0.70;;;6.80;99.90;;;;;;5073425;28;20461;-38
2021/01/22 04:06:37;;;;;;;0.70;0.70;;;6.80;99.90;;;;;;5075070;28;20441;-39
2021/01/22 04:09:04;;;;;;;0.70;0.70;;;6.80;99.90;;;;;;5077342;28;20448;-39
2021/01/22 04:11:31;;;;;;;1.53;0.90;;;6.80;99.90;;;;;;5077241;28;20444;-38
2021/01/22 04:13:58;;;;;;;1.17;0.80;;;6.70;99.90;;;;;;5077128;28;20517;-38
2021/01/22 04:16:24;;;;;;;1.67;0.60;;;6.70;99.90;;;;;;5076549;28;20452;-38
2021/01/22 04:18:50;;;;;;;1.30;0.80;;;6.60;99.90;;;;;;5076483;28;20554;-38
2021/01/22 04:21:16;;;;;;;3.73;0.70;;;6.60;99.90;;;;;;5076857;28;20481;-38
2021/01/22 04:23:43;;;;;;;2.60;0.80;;;6.60;99.90;;;;;;5076686;28;20455;-39
2021/01/22 04:26:09;;;;;;;1.43;0.90;;;6.70;99.90;;;;;;5076480;28;20456;-38
2021/01/22 04:28:36;;;;;;;2.00;0.70;;;6.70;99.90;;;;;;5076338;28;20824;-39
2021/01/22 04:31:02;;;;;;;0.73;0.73;;;6.80;99.90;;;;;;5076498;28;20458;-38
2021/01/22 04:33:28;;;;;;;0.83;0.70;;;6.80;99.90;;;;;;5076101;28;20946;-38
2021/01/22 04:35:55;;;;;;;1.10;0.70;;;6.90;99.90;;;;;;5076498;28;20444;-39
2021/01/22 04:38:21;;;;;;;1.87;0.63;;;6.90;99.90;;;;;;5076366;28;20452;-39
2021/01/22 04:40:49;;;;;;;0.90;0.70;;;7.00;99.90;;;;;;5076210;28;20478;-39
2021/01/22 04:43:16;;;;;;;0.70;0.60;;;7.00;99.90;;;;;;5076001;28;20448;-39
2021/01/22 04:45:43;;;;;;;0.80;0.60;;;7.00;99.90;;;;;;5076196;28;20890;-38
2021/01/22 04:48:10;;;;;;;1.70;0.60;;;7.10;99.90;;;;;;5075879;28;20943;-38
2021/01/22 04:50:38;;;;;;;1.20;0.60;;;7.10;99.90;;;;;;5076140;28;20456;-38
2021/01/22 04:53:09;;;;;;;1.40;0.63;;;7.10;99.90;;;;;;5076127;28;20445;-38
2021/01/22 04:55:40;;;;;;;0.50;0.50;;;7.10;99.90;;;;;;5076097;28;20464;-38
2021/01/22 04:58:08;;;;;;;3.83;0.60;;;7.10;99.90;;;;;;5076005;28;20425;-39
2021/01/22 05:00:35;;;;;;;4.93;0.60;;;7.00;99.90;;;;;;5075940;28;20448;-38
2021/01/22 05:03:02;;;;;;;0.70;0.70;;;7.00;99.90;;;;;;5075805;28;20480;-39
2021/01/22 05:05:29;;;;;;;0.90;0.50;;;7.00;99.90;;;;;;5075820;28;20473;-38
2021/01/22 05:07:55;;;;;;;0.70;0.50;;;7.00;99.90;;;;;;5075827;28;20449;-39
2021/01/22 05:10:22;;;;;;;0.50;0.50;;;6.90;99.90;;;;;;5075766;28;20441;-39
2021/01/22 05:12:48;;;;;;;0.50;0.50;;;6.80;99.90;;;;;;5075677;28;20441;-38
2021/01/22 05:15:16;;;;;;;0.60;0.50;;;6.90;99.90;;;;;;5075359;28;21067;-38
2021/01/22 05:17:57;;;;;;;0.40;0.40;;;6.90;99.90;;;;;;5074691;28;20514;-39
2021/01/22 05:20:32;;;;;;;0.50;0.50;;;6.90;99.90;;;;;;5075301;28;20427;-38
2021/01/22 05:22:58;;;;;;;0.53;0.50;;;6.90;99.90;;;;;;5075479;28;20460;-39
2021/01/22 05:25:25;;;;;;;1.00;0.50;;;6.80;99.90;;;;;;5075557;28;20460;-39
2021/01/22 05:27:53;;;;;;;0.60;0.60;;;6.90;99.90;;;;;;5075443;28;20444;-38
2021/01/22 05:30:21;;;;;;;0.50;0.40;;;6.80;99.90;;;;;;5075454;28;20815;-38
2021/01/22 05:32:47;;;;;;;0.50;0.50;;;6.70;99.90;;;;;;5075064;28;20954;-39
2021/01/22 05:35:28;;;;;;;1.17;0.50;;;6.80;99.90;;;;;;5075452;28;20465;-39
2021/01/22 05:37:55;;;;;;;0.40;0.40;;;6.80;99.90;;;;;;5075343;28;20471;-38
2021/01/22 05:40:23;;;;;;;0.50;0.50;;;6.80;99.90;;;;;;5075324;28;20459;-38
2021/01/22 05:42:53;;;;;;;1.00;0.47;;;6.80;99.90;;;;;;5075491;28;20473;-38
2021/01/22 05:45:36;;;;;;;2.30;0.47;;;6.80;99.90;;;;;;5075156;28;20475;-38
2021/01/22 05:48:02;;;;;;;0.50;0.50;;;6.80;99.90;;;;;;5075949;28;20824;-38
2021/01/22 05:50:45;;;;;;;1.27;0.50;;;6.80;99.90;;;;;;5078024;28;20441;-38
2021/01/22 05:53:11;;;;;;;0.40;0.40;;;6.80;99.90;;;;;;5076125;28;20421;-38
2021/01/22 05:55:38;;;;;;;0.50;0.50;;;6.80;99.90;;;;;;5074919;28;20465;-38
2021/01/22 05:58:04;;;;;;;0.60;0.50;;;6.80;99.90;;;;;;5074895;28;20451;-38
2021/01/22 06:00:31;;;;;;;0.40;0.40;;;6.70;99.90;;;;;;5074670;28;20869;-38
2021/01/22 06:02:57;;;;;;;0.50;0.50;;;6.70;99.90;;;;;;5074720;28;20483;-38
2021/01/22 06:05:23;;;;;;;0.40;0.40;;;6.70;99.90;;;;;;5074689;28;20525;-38
2021/01/22 06:08:07;;;;;;;0.40;0.40;;;6.70;99.90;;;;;;5074971;28;20448;-39
2021/01/22 06:10:38;;;;;;;0.50;0.40;;;6.70;99.90;;;;;;5076806;28;20515;-38
2021/01/22 06:13:08;;;;;;;0.93;0.40;;;6.70;99.90;;;;;;5077595;28;20425;-39
2021/01/22 06:15:35;;;;;;;1.63;0.50;;;6.70;99.90;;;;;;5075931;28;20469;-38
2021/01/22 06:18:02;;;;;;;0.53;0.40;;;6.70;99.90;;;;;;5075237;28;20449;-38
2021/01/22 06:20:30;;;;;;;0.80;0.50;;;6.60;99.90;;;;;;5074853;28;20934;-38
2021/01/22 06:23:06;;;;;;;1.13;0.50;;;6.60;99.90;;;;;;5074571;28;20491;-38
2021/01/22 06:25:34;;;;;;;0.50;0.40;;;6.70;99.90;;;;;;5074414;28;20972;-38
2021/01/22 06:28:03;;;;;;;0.50;0.47;;;6.70;99.90;;;;;;5074576;28;20448;-39
2021/01/22 06:30:31;;;;;;;0.60;0.60;;;6.70;99.90;;;;;;5074178;28;20449;-38
2021/01/22 06:32:59;;;;;;;1.40;0.70;;;6.70;99.90;;;;;;5074241;28;20448;-38
2021/01/22 06:35:30;;;;;;;0.90;0.40;;;6.70;99.90;;;;;;5074895;28;20859;-38
2021/01/22 06:37:57;;;;;;;0.50;0.47;;;6.60;99.90;;;;;;5074138;28;20425;-38
2021/01/22 06:40:24;;;;;;;1.07;0.50;;;6.60;99.90;;;;;;5074013;28;20520;-38
2021/01/22 06:42:51;;;;;;;0.40;0.40;;;6.60;99.90;;;;;;5073916;28;20553;-38
2021/01/22 06:45:18;;;;;;;1.03;0.60;;;6.60;99.90;;;;;;5073815;28;20467;-38
2021/01/22 06:48:01;;;;;;;0.40;0.40;;;6.60;99.90;;;;;;5073947;28;20465;-38
2021/01/22 06:50:29;;;;;;;0.60;0.50;;;6.70;99.90;;;;;;5073833;28;20558;-38
2021/01/22 06:53:13;;;;;;;0.40;0.40;;;6.70;99.90;;;;;;5073765;28;20415;-38
2021/01/22 06:56:09;;;;;;;2.33;0.50;;;6.70;99.90;;;;;;5073752;28;20496;-38
2021/01/22 06:58:36;;;;;;;0.70;0.40;;;6.70;99.90;;;;;;5073700;28;20451;-38
2021/01/22 07:01:05;;;;;;;0.50;0.40;;;6.70;99.90;;;;;;5073290;28;20935;-39
2021/01/22 07:03:50;;;;;;;0.70;0.50;;;6.70;99.90;;;;;;5074080;28;20470;-40
2021/01/22 07:06:48;;;;;;;2.67;0.57;;;6.60;99.90;;;;;;5076446;28;20450;-38
2021/01/22 07:09:15;;;;;;;1.30;0.50;;;6.60;99.90;;;;;;5082382;28;20475;-38
2021/01/22 07:11:58;;;;;;;0.50;0.50;;;6.60;99.90;;;;;;5080097;28;20498;-38
2021/01/22 07:14:39;;;;;;;2.10;0.83;;;6.60;99.90;;;;;;5073679;28;20831;-38
2021/01/22 07:17:17;;;;;;;0.60;0.50;;;6.60;99.90;;;;;;5073594;28;20447;-38
2021/01/22 07:19:53;;;;;;;0.93;0.50;;;6.70;99.90;;;;;;5073582;28;20459;-38
2021/01/22 07:22:20;;;;;;;1.00;0.40;;;6.70;99.90;;;;;;5073043;28;20518;-38
2021/01/22 07:24:50;;;;;;;0.50;0.50;;;6.70;99.90;;;;;;5073710;28;20862;-39
2021/01/22 07:27:17;;;;;;;1.03;0.50;;;6.60;99.90;;;;;;5073545;28;20433;-39
2021/01/22 07:30:11;;;;;;;0.50;0.50;;;6.70;99.90;;;;;;5073029;28;20495;-39
2021/01/22 07:32:37;;;;;;;0.47;0.40;;;6.70;99.90;;;;;;5074568;28;20425;-39
2021/01/22 07:35:05;;;;;;;1.50;0.50;;;6.80;99.90;;;;;;5073492;28;20465;-39
2021/01/22 07:37:39;;;;;;;1.13;0.50;;;6.80;99.90;;;;;;5073845;28;20433;-38
2021/01/22 07:40:08;;;;;;;0.60;0.50;;;6.80;99.90;;;;;;5073625;28;20487;-38
2021/01/22 07:42:36;;;;;;;0.40;0.40;;;6.80;99.90;;;;;;5073337;28;20461;-38
2021/01/22 07:45:11;;;;;;;0.87;0.60;;;6.90;99.90;;;;;;5073513;28;20526;-38
2021/01/22 07:47:40;;;;;;;0.97;0.50;;;6.90;99.90;;;;;;5073369;28;20439;-38
2021/01/22 07:50:08;;;;;;;0.70;0.50;;;6.90;99.90;;;;;;5073450;28;20452;-38
2021/01/22 07:52:38;;;;;;;2.40;0.60;;;6.90;99.90;;;;;;5073266;28;20502;-38
2021/01/22 07:55:12;;;;;;;1.30;0.60;;;6.90;99.90;;;;;;5072883;28;20479;-38
2021/01/22 07:57:39;;;;;;;0.70;0.60;;;7.00;99.90;;;;;;5073251;28;20429;-38
2021/01/22 08:00:08;;;;;;;0.83;0.50;;;7.10;99.90;;;;;;5072922;28;20974;-38
2021/01/22 08:02:34;;;;;;;0.70;0.70;;;7.00;99.90;;;;;;5073042;28;20481;-38
2021/01/22 08:05:02;;;;;;;0.50;0.50;;;7.10;99.90;;;;;;5073136;28;20458;-39
2021/01/22 08:07:32;;;;;;;1.07;0.50;;;7.10;99.90;;;;;;5073037;28;20441;-39
2021/01/22 08:09:59;;;;;;;0.60;0.60;;;7.10;99.90;;;;;;5072967;28;20449;-38
2021/01/22 08:12:25;;;;;;;2.07;0.60;;;7.10;99.90;;;;;;5072773;28;20977;-38
2021/01/22 08:14:52;;;;;;;1.07;0.57;;;7.20;99.90;;;;;;5072859;28;20467;-39
2021/01/22 08:17:19;;;;;;;0.47;0.47;;;7.20;99.90;;;;;;5072968;28;20449;-38
2021/01/22 08:19:45;;;;;;;0.50;0.50;;;7.20;99.90;;;;;;5072479;28;20473;-38
2021/01/22 08:22:15;;;;;;;0.70;0.50;;;7.20;99.90;;;;;;5072801;28;20510;-38
2021/01/22 08:24:46;;;;;;;0.60;0.57;;;7.30;99.90;;;;;;5072838;28;20844;-38
2021/01/22 08:27:13;;;;;;;0.60;0.50;;;7.30;99.90;;;;;;5072957;28;20432;-38
2021/01/22 08:29:40;;;;;;;0.60;0.40;;;7.30;99.90;;;;;;5072841;28;20494;-39
2021/01/22 08:32:11;;;;;;;1.33;0.50;;;7.30;99.90;;;;;;5072845;28;20448;-38
2021/01/22 08:34:38;;;;;;;1.83;0.63;;;7.40;99.90;;;;;;5072852;28;20501;-38
2021/01/22 08:37:08;;;;;;;0.70;0.70;;;7.50;99.90;;;;;;5072531;28;20951;-38
2021/01/22 08:39:48;;;;;;;0.93;0.60;;;7.60;99.90;;;;;;5073164;28;20456;-38
2021/01/22 08:42:15;;;;;;;0.50;0.50;;;7.60;99.90;;;;;;5073539;28;20567;-38
2021/01/22 08:44:55;;;;;;;0.90;0.50;;;7.70;99.90;;;;;;5072851;28;20511;-39
2021/01/22 08:47:23;;;;;;;0.57;0.57;;;7.70;99.90;;;;;;5072671;28;20436;-38
2021/01/22 08:49:57;;;;;;;0.70;0.53;;;7.70;99.90;;;;;;5072824;28;20444;-38
2021/01/22 08:52:24;;;;;;;0.43;0.43;;;7.70;99.90;;;;;;5072610;28;20467;-38
2021/01/22 08:54:53;;;;;;;0.93;0.57;;;7.80;99.90;;;;;;5075537;28;20837;-39
2021/01/22 08:57:20;;;;;;;0.60;0.60;;;7.90;99.90;;;;;;5076315;28;20449;-38
2021/01/22 08:59:50;;;;;;;4.30;0.70;;;8.50;99.90;;;;;;5076154;28;20453;-38
2021/01/22 09:02:31;;;;;;;0.70;0.60;;;9.10;99.90;;;;;;5076038;28;20522;-39
2021/01/22 09:05:05;;;;;;;0.60;0.50;;;9.90;99.90;;;;;;5075709;28;20549;-38
2021/01/22 09:07:32;;;;;;;0.80;0.40;;;10.60;99.90;;;;;;5076012;28;20432;-39
2021/01/22 09:09:59;;;;;;;3.60;0.50;;;11.20;99.90;;;;;;5076127;28;20425;-38
2021/01/22 09:12:27;;;;;;;0.70;0.50;;;11.50;99.90;;;;;;5075992;28;20425;-38
2021/01/22 09:14:57;;;;;;;0.50;0.50;;;11.80;99.90;;;;;;5075882;28;20465;-39
2021/01/22 09:17:39;;;;;;;0.50;0.50;;;11.60;99.90;;;;;;5075919;28;20510;-39
2021/01/22 09:20:25;;;;;;;0.40;0.40;;;11.60;99.90;;;;;;5075489;28;20825;-39
2021/01/22 09:22:52;;;;;;;0.80;0.40;;;12.10;99.90;;;;;;5075443;28;21043;-39
2021/01/22 09:25:20;;;;;;;0.40;0.40;;;12.40;99.90;;;;;;5075582;28;20535;-39
2021/01/22 09:27:47;;;;;;;0.60;0.50;;;12.80;99.90;;;;;;5075658;28;20414;-39
2021/01/22 09:30:15;;;;;;;0.50;0.50;;;13.70;98.00;;;;;;5075568;28;20490;-39
2021/01/22 09:32:46;;;;;;;1.03;0.50;;;14.20;96.00;;;;;;5075511;28;20432;-39
2021/01/22 09:35:13;;;;;;;0.50;0.40;;;14.70;94.00;;;;;;5075534;28;20457;-39
2021/01/22 09:37:40;;;;;;;0.50;0.40;;;15.20;91.90;;;;;;5075194;28;20845;-39
2021/01/22 09:40:08;;;;;;;0.50;0.50;;;15.60;90.30;;;;;;5075546;28;20781;-39
2021/01/22 09:42:34;;;;;;;0.57;0.57;;;15.70;88.50;;;;;;5075320;28;20859;-39
2021/01/22 09:45:01;;;;;;;1.37;0.50;;;15.80;85.00;;;;;;5075219;28;20465;-39
2021/01/22 09:47:27;;;;;;;1.60;0.40;;;15.60;83.80;;;;;;5075419;28;20429;-39
2021/01/22 09:49:53;;;;;;;0.73;0.40;;;15.20;83.00;;;;;;5075456;28;20465;-39
2021/01/22 09:52:20;;;;;;;0.57;0.40;;;14.60;84.10;;;;;;5075356;28;20787;-39
2021/01/22 09:54:47;;;;;;;0.50;0.40;;;14.10;86.10;;;;;;5077738;28;20539;-39
2021/01/22 09:57:14;;;;;;;2.10;0.50;;;13.20;88.80;;;;;;5076464;28;20425;-39
2021/01/22 09:59:40;;;;;;;0.73;0.50;;;12.70;90.30;;;;;;5076212;28;20429;-39
2021/01/22 10:02:07;;;;;;;0.73;0.40;;;12.70;91.50;;;;;;5075414;28;20836;-39
2021/01/22 10:04:34;;;;;;;0.87;0.50;;;12.80;91.30;;;;;;5074296;28;20472;-39
2021/01/22 10:07:00;;;;;;;0.77;0.40;;;13.10;91.50;;;;;;5078364;28;20429;-39
2021/01/22 10:09:27;;;;;;;0.50;0.40;;;13.50;90.60;;;;;;5075813;28;20459;-39
2021/01/22 10:11:54;;;;;;;1.27;0.50;;;13.70;90.40;;;;;;5077032;28;20436;-39
2021/01/22 10:14:20;;;;;;;0.70;0.60;;;13.80;90.10;;;;;;5074956;28;20525;-39
2021/01/22 10:16:47;;;;;;;1.53;0.40;;;14.00;89.40;;;;;;5074634;28;20910;-39
2021/01/22 10:19:13;;;;;;;0.40;0.40;;;13.90;88.10;;;;;;5074300;28;20484;-39
2021/01/22 10:21:39;;;;;;;0.50;0.43;;;13.50;89.50;;;;;;5075295;28;20495;-39
2021/01/22 10:24:06;;;;;;;3.80;0.60;;;13.30;90.20;;;;;;5079737;28;20514;-39
2021/01/22 10:26:32;;;;;;;0.53;0.43;;;13.20;91.00;;;;;;5077179;28;20476;-39
2021/01/22 10:28:59;;;;;;;1.63;0.50;;;13.10;91.20;;;;;;5075218;28;20453;-39
2021/01/22 10:31:26;;;;;;;1.10;0.60;;;13.30;90.90;;;;;;5074703;28;20946;-39
2021/01/22 10:33:52;;;;;;;1.07;0.60;;;13.30;90.90;;;;;;5074387;28;20838;-39
2021/01/22 10:36:18;;;;;;;0.50;0.40;;;13.20;90.60;;;;;;5074631;28;20457;-40
2021/01/22 10:38:46;;;;;;;0.70;0.70;;;13.20;90.80;;;;;;5074257;28;20452;-39
2021/01/22 10:41:13;;;;;;;1.67;0.50;;;13.10;90.70;;;;;;5074015;28;20449;-39
2021/01/22 10:43:39;;;;;;;0.53;0.40;;;13.00;90.10;;;;;;5073838;28;21010;-39
2021/01/22 10:46:06;;;;;;;0.60;0.50;;;12.90;90.50;;;;;;5074110;28;20447;-39
2021/01/22 10:48:32;;;;;;;0.80;0.60;;;12.90;90.80;;;;;;5073649;28;20943;-39
2021/01/22 10:50:59;;;;;;;0.50;0.50;;;13.00;91.30;;;;;;5073905;28;20503;-39
2021/01/22 10:53:25;;;;;;;0.90;0.50;;;12.90;90.80;;;;;;5074013;28;20445;-39
2021/01/22 10:55:52;;;;;;;1.27;0.50;;;12.90;91.30;;;;;;5073803;28;20469;-39
2021/01/22 10:58:19;;;;;;;0.97;0.50;;;13.00;90.90;;;;;;5073790;28;20437;-39
2021/01/22 11:00:45;;;;;;;0.93;0.40;;;13.00;90.60;;;;;;5073739;28;20456;-39
2021/01/22 11:03:12;;;;;;;0.50;0.50;;;13.10;90.70;;;;;;5073636;28;20488;-39
2021/01/22 11:05:38;;;;;;;1.53;0.60;;;13.00;90.90;;;;;;5073653;28;20522;-39
2021/01/22 11:08:05;;;;;;;0.80;0.50;;;13.00;91.50;;;;;;5073655;28;20448;-39
2021/01/22 11:10:32;;;;;;;0.93;0.50;;;13.00;92.10;;;;;;5073605;28;20823;-39
2021/01/22 11:12:58;;;;;;;1.70;0.50;;;12.90;91.90;;;;;;5073624;28;20444;-39
2021/01/22 11:15:24;;;;;;;1.47;0.50;;;13.00;92.00;;;;;;5073069;28;20488;-39
2021/01/22 11:17:50;;;;;;;0.50;0.50;;;13.00;92.80;;;;;;5073278;28;20449;-39
2021/01/22 11:20:18;;;;;;;1.10;0.60;;;13.10;92.40;;;;;;5073385;28;20966;-39
2021/01/22 11:22:46;;;;;;;0.50;0.47;;;13.00;92.10;;;;;;5073253;28;20461;-40
2021/01/22 11:25:13;;;;;;;0.90;0.50;;;12.90;91.80;;;;;;5074432;28;20465;-39
2021/01/22 11:27:40;;;;;;;0.50;0.50;;;13.00;92.00;;;;;;5084985;28;20445;-39
2021/01/22 11:30:07;;;;;;;0.50;0.50;;;13.00;91.70;;;;;;5086244;28;20447;-39
2021/01/22 11:32:33;;;;;;;0.60;0.60;;;12.90;91.90;;;;;;5085446;28;20942;-39
2021/01/22 11:35:00;;;;;;;0.70;0.70;;;12.70;91.30;;;;;;5076105;28;20465;-40
2021/01/22 11:37:27;;;;;;;0.93;0.50;;;12.60;91.70;;;;;;5073291;28;20456;-40
2021/01/22 11:39:53;;;;;;;0.47;0.40;;;12.40;92.20;;;;;;5073885;28;20445;-39
2021/01/22 11:42:19;;;;;;;0.50;0.50;;;12.10;92.10;;;;;;5073348;28;20477;-39
2021/01/22 11:44:46;;;;;;;0.80;0.60;;;12.00;92.60;;;;;;5072894;28;20519;-39
2021/01/22 11:47:12;;;;;;;0.80;0.40;;;12.00;93.40;;;;;;5073227;28;20453;-39
2021/01/22 11:49:38;;;;;;;0.67;0.60;;;12.00;93.50;;;;;;5073478;28;20514;-39
2021/01/22 11:52:05;;;;;;;0.70;0.60;;;11.90;93.50;;;;;;5073207;28;20436;-39
2021/01/22 11:54:33;;;;;;;0.80;0.70;;;11.90;93.30;;;;;;5073100;28;20465;-39
2021/01/22 11:57:00;;;;;;;0.70;0.53;;;11.90;93.90;;;;;;5073224;28;20444;-39
2021/01/22 11:59:26;;;;;;;0.77;0.50;;;12.00;93.40;;;;;;5072906;28;20539;-39
2021/01/22 12:01:52;;;;;;;0.50;0.50;;;12.00;94.00;;;;;;5073153;28;20483;-39
2021/01/22 12:04:18;;;;;;;0.50;0.50;;;11.90;93.40;;;;;;5073008;28;21012;-39
2021/01/22 12:06:45;;;;;;;0.40;0.40;;;12.00;93.90;;;;;;5072919;28;20464;-39
2021/01/22 12:09:11;;;;;;;1.00;0.60;;;12.00;94.00;;;;;;5073202;28;20449;-39
2021/01/22 12:11:38;;;;;;;0.50;0.50;;;12.10;94.00;;;;;;5073285;28;20430;-39
2021/01/22 12:14:05;;;;;;;0.70;0.50;;;12.20;93.20;;;;;;5073123;28;20457;-39
2021/01/22 12:16:31;;;;;;;0.50;0.50;;;12.20;92.50;;;;;;5073077;28;20448;-39
2021/01/22 12:18:57;;;;;;;0.40;0.40;;;12.20;92.30;;;;;;5072654;28;20574;-39
2021/01/22 12:21:24;;;;;;;1.97;0.70;;;12.20;92.60;;;;;;5073074;28;20943;-39
2021/01/22 12:23:50;;;;;;;0.53;0.50;;;12.20;92.70;;;;;;5072871;28;20476;-39
2021/01/22 12:26:16;;;;;;;0.47;0.47;;;12.10;92.60;;;;;;5072862;28;20514;-39
2021/01/22 12:28:43;;;;;;;0.70;0.60;;;12.10;92.40;;;;;;5076132;28;20451;-39
2021/01/22 12:31:10;;;;;;;0.63;0.60;;;12.20;92.50;;;;;;5076710;28;20444;-39
2021/01/22 12:33:37;;;;;;;0.50;0.40;;;12.30;91.90;;;;;;5076506;28;20915;-39
2021/01/22 12:36:04;;;;;;;1.63;0.47;;;12.20;92.10;;;;;;5076695;28;20455;-39
2021/01/22 12:38:30;;;;;;;0.63;0.50;;;12.30;92.60;;;;;;5076668;28;20441;-39
2021/01/22 12:40:57;;;;;;;0.80;0.50;;;12.30;92.80;;;;;;5076625;28;20448;-39
2021/01/22 12:43:23;;;;;;;0.77;0.53;;;12.20;92.10;;;;;;5076135;28;20487;-40
2021/01/22 12:45:50;;;;;;;3.17;0.70;;;12.20;92.30;;;;;;5076293;28;20471;-39
2021/01/22 12:48:16;;;;;;;0.80;0.40;;;12.30;92.30;;;;;;5076070;28;21024;-39
2021/01/22 12:50:44;;;;;;;5.73;0.63;;;12.30;92.20;;;;;;5077179;28;20445;-39
2021/01/22 12:53:10;;;;;;;2.30;0.40;;;12.30;92.00;;;;;;5076623;28;20441;-39
2021/01/22 12:55:36;;;;;;;0.40;0.40;;;12.30;91.70;;;;;;5076031;28;20472;-40
2021/01/22 12:58:03;;;;;;;1.03;0.50;;;12.30;91.90;;;;;;5075798;28;20445;-40